createdAt,value
2018-08-04T00:00:45.223Z,18.40
2018-08-04T00:03:13.471Z,17.57
2018-08-04T00:05:42.724Z,18.27
2018-08-04T00:08:10.961Z,19.00
2018-08-04T00:10:39.185Z,19.13
2018-08-04T00:13:07.462Z,18.77
2018-08-04T00:15:35.693Z,18.30
2018-08-04T00:18:03.930Z,19.43
2018-08-04T00:20:32.187Z,18.87
2018-08-04T00:23:00.423Z,18.80
2018-08-04T00:25:28.658Z,18.50
2018-08-04T00:27:56.908Z,18.13
2018-08-04T00:30:25.132Z,19.27
2018-08-04T00:32:53.445Z,19.50
2018-08-04T00:35:21.689Z,18.70
2018-08-04T00:37:49.941Z,20.23
2018-08-04T00:40:18.191Z,20.40
2018-08-04T00:42:46.443Z,19.97
2018-08-04T00:45:14.732Z,19.50
2018-08-04T00:47:43.006Z,20.43
2018-08-04T00:50:11.515Z,21.33
2018-08-04T00:52:39.768Z,20.97
2018-08-04T00:55:08.035Z,20.50
2018-08-04T00:57:36.308Z,20.27
2018-08-04T01:00:05.329Z,21.53
2018-08-04T01:02:33.573Z,21.17
2018-08-04T01:05:01.817Z,21.33
2018-08-04T01:07:30.069Z,21.63
2018-08-04T01:10:00.780Z,22.27
2018-08-04T01:12:29.122Z,21.40
2018-08-04T01:14:57.546Z,21.00
2018-08-04T01:17:25.795Z,21.57
2018-08-04T01:19:53.776Z,21.30
2018-08-04T01:22:22.000Z,21.43
2018-08-04T01:24:50.445Z,20.43
2018-08-04T01:28:58.096Z,21.47
2018-08-04T01:31:26.404Z,21.70
2018-08-04T01:33:54.711Z,22.03
2018-08-04T01:36:22.964Z,22.70
2018-08-04T01:38:51.200Z,22.37
2018-08-04T01:41:19.449Z,23.20
2018-08-04T01:43:47.705Z,22.27
2018-08-04T01:46:15.960Z,23.10
2018-08-04T01:48:44.204Z,23.93
2018-08-04T01:51:12.448Z,22.67
2018-08-04T01:53:40.738Z,24.27
2018-08-04T01:56:08.937Z,24.13
2018-08-04T01:58:37.193Z,24.10
2018-08-04T02:01:05.457Z,24.50
2018-08-04T02:03:43.296Z,25.40
2018-08-04T02:06:11.601Z,24.80
2018-08-04T02:08:39.972Z,24.67
2018-08-04T02:11:08.257Z,24.80
2018-08-04T02:13:36.565Z,24.33
2018-08-04T02:16:09.840Z,25.23
2018-08-04T02:18:38.210Z,24.30
2018-08-04T02:21:06.501Z,24.87
2018-08-04T02:23:34.838Z,24.70
2018-08-04T02:26:03.073Z,25.23
2018-08-04T02:28:31.397Z,25.60
2018-08-04T02:30:59.662Z,25.23
2018-08-04T02:33:27.923Z,26.70
2018-08-04T02:35:56.205Z,26.97
2018-08-04T02:38:24.431Z,26.53
2018-08-04T02:40:52.686Z,26.20
2018-08-04T02:43:20.913Z,26.70
2018-08-04T02:45:49.170Z,27.97
2018-08-04T02:48:17.464Z,26.67
2018-08-04T02:50:45.775Z,26.40
2018-08-04T02:53:14.012Z,27.37
2018-08-04T02:55:42.253Z,27.60
2018-08-04T02:58:10.493Z,27.33
2018-08-04T03:00:38.736Z,26.63
2018-08-04T03:03:06.972Z,25.87
2018-08-04T03:05:35.213Z,26.67
2018-08-04T03:08:03.578Z,26.37
2018-08-04T03:10:31.824Z,27.07
2018-08-04T03:13:00.067Z,25.53
2018-08-04T03:15:28.308Z,25.63
2018-08-04T03:17:56.596Z,27.37
2018-08-04T03:20:24.880Z,26.67
2018-08-04T03:22:53.117Z,26.27
2018-08-04T03:25:21.404Z,26.10
2018-08-04T03:27:49.657Z,26.73
2018-08-04T03:30:17.903Z,25.97
2018-08-04T03:32:46.194Z,27.43
2018-08-04T03:35:14.456Z,27.00
2018-08-04T03:40:33.331Z,26.63
2018-08-04T03:43:01.604Z,27.23
2018-08-04T03:45:29.874Z,27.10
2018-08-04T03:47:58.130Z,27.27
2018-08-04T03:50:26.372Z,27.30
2018-08-04T03:52:54.687Z,27.40
2018-08-04T03:55:22.944Z,27.47
2018-08-04T03:57:51.296Z,26.50
2018-08-04T04:00:19.548Z,26.60
2018-08-04T04:02:47.797Z,26.53
2018-08-04T04:05:16.157Z,28.50
2018-08-04T04:07:44.400Z,26.37
2018-08-04T04:10:12.784Z,26.97
2018-08-04T04:12:41.077Z,27.53
2018-08-04T04:15:09.549Z,26.63
2018-08-04T04:17:43.177Z,27.27
2018-08-04T04:20:11.422Z,26.90
2018-08-04T04:22:39.676Z,26.80
2018-08-04T04:25:26.834Z,25.53
2018-08-04T04:27:55.204Z,26.30
2018-08-04T04:30:23.505Z,25.87
2018-08-04T04:32:51.787Z,25.73
2018-08-04T04:35:20.054Z,25.67
2018-08-04T04:37:48.337Z,26.30
2018-08-04T04:40:16.589Z,27.07
2018-08-04T04:42:44.969Z,26.17
2018-08-04T04:45:13.369Z,24.40
2018-08-04T04:47:41.633Z,25.77
2018-08-04T04:50:09.893Z,24.60
2018-08-04T04:52:38.145Z,27.60
2018-08-04T04:55:06.393Z,25.63
2018-08-04T04:57:34.697Z,24.97
2018-08-04T05:00:03.079Z,24.47
2018-08-04T05:02:31.355Z,26.30
2018-08-04T05:04:59.592Z,25.90
2018-08-04T05:07:27.851Z,25.23
2018-08-04T05:09:56.188Z,25.20
2018-08-04T05:12:24.440Z,26.20
2018-08-04T05:14:52.690Z,26.63
2018-08-04T05:17:20.925Z,25.03
2018-08-04T05:19:49.157Z,25.93
2018-08-04T05:22:17.408Z,25.53
2018-08-04T05:24:45.681Z,25.23
2018-08-04T05:27:13.937Z,25.07
2018-08-04T05:29:42.178Z,25.40
2018-08-04T05:32:10.421Z,25.93
2018-08-04T05:34:38.700Z,24.13
2018-08-04T05:37:06.977Z,28.47
2018-08-04T05:39:35.240Z,26.67
2018-08-04T05:42:03.493Z,26.60
2018-08-04T05:44:31.974Z,24.77
2018-08-04T05:47:00.204Z,23.67
2018-08-04T05:49:28.469Z,24.50
2018-08-04T05:51:56.777Z,27.50
2018-08-04T05:54:25.132Z,26.17
2018-08-04T05:56:53.447Z,26.37
2018-08-04T05:59:24.794Z,25.73
2018-08-04T06:01:53.064Z,24.63
2018-08-04T06:04:21.321Z,23.93
2018-08-04T06:06:49.638Z,25.73
2018-08-04T06:09:17.961Z,23.60
2018-08-04T06:11:46.221Z,22.97
2018-08-04T06:14:14.563Z,23.83
2018-08-04T06:16:42.857Z,24.10
2018-08-04T06:19:11.149Z,23.00
2018-08-04T06:21:39.437Z,23.50
2018-08-04T06:24:07.769Z,22.07
2018-08-04T06:26:36.065Z,21.60
2018-08-04T06:29:04.434Z,22.10
2018-08-04T06:31:32.733Z,20.70
2018-08-04T06:34:01.065Z,22.50
2018-08-04T06:36:29.450Z,23.20
2018-08-04T06:38:57.818Z,21.70
2018-08-04T06:41:29.039Z,20.93
2018-08-04T06:43:57.448Z,21.17
2018-08-04T06:46:25.762Z,19.93
2018-08-04T06:48:54.611Z,20.23
2018-08-04T06:51:22.946Z,20.97
2018-08-04T06:53:51.274Z,20.60
2018-08-04T06:56:19.539Z,19.60
2018-08-04T06:58:47.973Z,19.55
2018-08-04T07:01:16.274Z,21.50
2018-08-04T07:03:44.568Z,20.20
2018-08-04T07:06:12.861Z,19.70
2018-08-04T07:08:41.242Z,18.57
2018-08-04T07:11:10.951Z,20.53
2018-08-04T07:13:39.376Z,21.77
2018-08-04T07:16:07.653Z,18.47
2018-08-04T07:18:35.997Z,18.50
2018-08-04T07:21:04.444Z,19.05
2018-08-04T07:23:32.863Z,17.52
2018-08-04T07:26:01.310Z,18.77
2018-08-04T07:28:29.622Z,17.82
2018-08-04T07:30:58.209Z,18.55
2018-08-04T07:33:26.554Z,15.55
2018-08-04T07:38:45.371Z,15.58
2018-08-04T07:41:13.776Z,13.55
2018-08-04T07:43:42.173Z,12.75
2018-08-04T07:46:10.449Z,12.50
2018-08-04T07:48:38.890Z,14.05
2018-08-04T07:51:07.183Z,14.63
2018-08-04T07:53:35.521Z,12.33
2018-08-04T07:56:03.905Z,12.65
2018-08-04T07:58:32.198Z,12.30
2018-08-04T08:01:00.455Z,13.70
2018-08-04T08:03:28.861Z,11.75
2018-08-04T08:05:57.319Z,11.53
2018-08-04T08:08:25.574Z,13.10
2018-08-04T08:10:54.017Z,14.35
2018-08-04T08:13:22.153Z,14.10
2018-08-04T08:15:50.511Z,13.78
2018-08-04T08:18:18.922Z,14.87
2018-08-04T08:20:48.722Z,13.25
2018-08-04T08:23:17.145Z,13.25
2018-08-04T08:25:56.730Z,14.20
2018-08-04T08:28:25.017Z,13.65
2018-08-04T08:30:57.678Z,13.40
2018-08-04T08:33:25.945Z,12.93
2018-08-04T08:35:54.376Z,13.40
2018-08-04T08:38:26.360Z,12.88
2018-08-04T08:40:54.613Z,12.82
2018-08-04T08:43:22.973Z,13.03
2018-08-04T08:45:51.376Z,14.95
2018-08-04T08:48:19.816Z,13.72
2018-08-04T08:50:48.128Z,12.60
2018-08-04T08:53:16.450Z,13.00
2018-08-04T08:55:44.853Z,11.70
2018-08-04T08:58:12.828Z,13.50
2018-08-04T09:00:41.128Z,12.10
2018-08-04T09:03:09.445Z,12.28
2018-08-04T09:05:37.846Z,12.43
2018-08-04T09:08:06.311Z,11.43
2018-08-04T09:10:34.757Z,12.05
2018-08-04T09:13:03.087Z,12.15
2018-08-04T09:15:31.538Z,15.68
2018-08-04T09:17:59.986Z,13.40
2018-08-04T09:20:40.593Z,13.85
2018-08-04T09:23:09.292Z,11.80
2018-08-04T09:25:38.159Z,12.60
2018-08-04T09:28:10.464Z,12.03
2018-08-04T09:30:39.417Z,11.30
2018-08-04T09:33:08.557Z,12.75
2018-08-04T09:35:37.417Z,12.20
2018-08-04T09:38:06.317Z,11.35
2018-08-04T09:40:34.612Z,11.93
2018-08-04T09:43:03.369Z,12.18
2018-08-04T09:45:32.133Z,13.95
2018-08-04T09:48:00.971Z,10.90
2018-08-04T09:50:29.266Z,10.13
2018-08-04T09:52:57.995Z,10.68
2018-08-04T09:55:26.747Z,9.95
2018-08-04T09:57:55.596Z,10.13
2018-08-04T10:00:27.329Z,10.68
2018-08-04T10:02:57.329Z,10.25
2018-08-04T10:05:26.228Z,10.32
2018-08-04T10:07:54.496Z,10.18
2018-08-04T10:10:22.765Z,8.90
2018-08-04T10:12:52.425Z,10.32
2018-08-04T10:15:21.266Z,7.62
2018-08-04T10:17:50.067Z,7.80
2018-08-04T10:20:18.916Z,8.53
2018-08-04T10:22:47.665Z,7.30
2018-08-04T10:25:16.342Z,6.12
2018-08-04T10:27:44.681Z,7.83
2018-08-04T10:30:13.354Z,10.15
2018-08-04T10:32:42.361Z,7.00
2018-08-04T10:38:00.970Z,10.72
2018-08-04T10:40:29.346Z,8.55
2018-08-04T10:42:58.796Z,9.40
2018-08-04T10:45:27.614Z,8.53
2018-08-04T10:47:56.985Z,7.85
2018-08-04T10:50:26.900Z,7.87
2018-08-04T10:53:02.200Z,8.68
2018-08-04T10:55:30.878Z,9.15
2018-08-04T10:58:20.001Z,8.90
2018-08-04T11:00:48.607Z,9.88
2018-08-04T11:03:17.197Z,8.00
2018-08-04T11:05:45.896Z,7.37
2018-08-04T11:08:14.854Z,8.10
2018-08-04T11:10:43.685Z,7.20
2018-08-04T11:13:12.315Z,9.38
2018-08-04T11:15:41.296Z,7.87
2018-08-04T11:18:10.047Z,8.10
2018-08-04T11:20:41.760Z,7.85
2018-08-04T11:23:10.438Z,8.15
2018-08-04T11:25:39.731Z,7.85
2018-08-04T11:28:08.868Z,8.43
2018-08-04T11:30:57.630Z,7.87
2018-08-04T11:33:29.384Z,12.47
2018-08-04T11:35:58.060Z,8.23
2018-08-04T11:38:27.480Z,7.50
2018-08-04T11:40:56.313Z,7.65
2018-08-04T11:43:25.287Z,9.18
2018-08-04T11:45:54.106Z,7.37
2018-08-04T11:48:22.823Z,8.30
2018-08-04T11:50:51.515Z,8.10
2018-08-04T11:53:20.168Z,8.33
2018-08-04T11:55:49.011Z,8.95
2018-08-04T11:58:17.733Z,8.85
2018-08-04T12:00:46.487Z,8.50
2018-08-04T12:03:15.678Z,8.33
2018-08-04T12:05:44.919Z,7.85
2018-08-04T12:08:13.733Z,9.75
2018-08-04T12:10:41.980Z,8.93
2018-08-04T12:13:10.257Z,8.00
2018-08-04T12:15:38.498Z,8.45
2018-08-04T12:18:06.787Z,8.48
2018-08-04T12:20:35.025Z,8.23
2018-08-04T12:23:03.336Z,7.47
2018-08-04T12:25:31.591Z,8.50
2018-08-04T12:27:59.904Z,7.60
2018-08-04T12:30:28.155Z,7.90
2018-08-04T12:32:56.451Z,8.35
2018-08-04T12:35:26.536Z,9.45
2018-08-04T12:37:54.771Z,7.95
2018-08-04T12:40:23.005Z,8.55
2018-08-04T12:42:51.224Z,8.00
2018-08-04T12:45:19.490Z,7.83
2018-08-04T12:47:47.832Z,7.60
2018-08-04T12:50:16.077Z,8.35
2018-08-04T12:52:44.311Z,7.83
2018-08-04T12:55:12.549Z,8.88
2018-08-04T12:57:40.799Z,7.30
2018-08-04T13:00:09.348Z,7.75
2018-08-04T13:02:37.632Z,7.37
2018-08-04T13:05:06.414Z,7.50
2018-08-04T13:07:34.678Z,7.12
2018-08-04T13:10:02.951Z,7.53
2018-08-04T13:12:31.197Z,7.12
2018-08-04T13:14:59.216Z,7.35
2018-08-04T13:17:27.482Z,7.15
2018-08-04T13:19:56.063Z,7.53
2018-08-04T13:22:24.996Z,7.37
2018-08-04T13:24:55.902Z,6.65
2018-08-04T13:27:24.134Z,8.10
2018-08-04T13:29:52.526Z,6.47
2018-08-04T13:32:20.888Z,6.80
2018-08-04T13:34:49.201Z,11.08
2018-08-04T13:37:17.464Z,6.60
2018-08-04T13:39:45.681Z,6.75
2018-08-04T13:42:14.265Z,9.53
2018-08-04T13:44:43.129Z,7.30
2018-08-04T13:47:11.388Z,6.55
2018-08-04T13:49:39.670Z,6.92
2018-08-04T13:52:08.088Z,6.42
2018-08-04T13:54:36.320Z,6.97
2018-08-04T13:57:04.557Z,7.47
2018-08-04T13:59:32.873Z,6.85
2018-08-04T14:02:01.133Z,6.53
2018-08-04T14:04:29.356Z,6.28
2018-08-04T14:06:57.598Z,15.72
2018-08-04T14:12:16.405Z,7.47
2018-08-04T14:14:44.670Z,11.95
2018-08-04T14:17:34.899Z,9.03
2018-08-04T14:20:03.157Z,7.65
2018-08-04T14:22:31.388Z,8.30
2018-08-04T14:24:59.611Z,8.80
2018-08-04T14:27:27.868Z,8.28
2018-08-04T14:29:56.093Z,10.23
2018-08-04T14:32:24.333Z,8.15
2018-08-04T14:34:52.602Z,7.65
2018-08-04T14:37:20.872Z,7.30
2018-08-04T14:39:49.145Z,6.92
2018-08-04T14:42:17.389Z,7.17
2018-08-04T14:44:45.813Z,7.47
2018-08-04T14:47:14.045Z,9.23
2018-08-04T14:49:42.313Z,7.87
2018-08-04T14:52:10.545Z,7.50
2018-08-04T14:54:38.819Z,7.97
2018-08-04T14:57:07.051Z,9.03
2018-08-04T14:59:35.320Z,8.93
2018-08-04T15:02:03.608Z,7.03
2018-08-04T15:04:31.849Z,7.65
2018-08-04T15:07:00.072Z,11.00
2018-08-04T15:09:28.087Z,8.10
2018-08-04T15:11:56.325Z,9.60
2018-08-04T15:14:24.535Z,8.18
2018-08-04T15:16:52.777Z,8.30
2018-08-04T15:19:21.073Z,9.30
2018-08-04T15:21:49.363Z,13.53
2018-08-04T15:24:17.621Z,10.50
2018-08-04T15:26:45.885Z,8.55
2018-08-04T15:29:14.172Z,8.78
2018-08-04T15:31:42.403Z,8.20
2018-08-04T15:34:10.653Z,8.38
2018-08-04T15:36:38.930Z,8.43
2018-08-04T15:39:08.277Z,9.90
2018-08-04T15:41:36.616Z,9.10
2018-08-04T15:44:15.637Z,7.67
2018-08-04T15:46:43.985Z,7.50
2018-08-04T15:49:12.257Z,7.28
2018-08-04T15:51:41.099Z,6.58
2018-08-04T15:54:09.847Z,6.53
2018-08-04T15:56:38.777Z,7.10
2018-08-04T15:59:07.838Z,7.67
2018-08-04T16:01:36.700Z,7.62
2018-08-04T16:04:05.403Z,7.33
2018-08-04T16:06:33.769Z,9.25
2018-08-04T16:09:02.635Z,7.87
2018-08-04T16:11:31.578Z,6.58
2018-08-04T16:14:00.377Z,7.37
2018-08-04T16:16:29.208Z,7.53
2018-08-04T16:18:57.229Z,7.67
2018-08-04T16:21:25.934Z,6.97
2018-08-04T16:23:54.639Z,8.33
2018-08-04T16:29:02.038Z,7.03
2018-08-04T16:31:30.924Z,6.72
2018-08-04T16:34:00.127Z,7.00
2018-08-04T16:36:29.503Z,6.80
2018-08-04T16:38:58.226Z,7.17
2018-08-04T16:41:27.102Z,6.83
2018-08-04T16:43:56.542Z,8.35
2018-08-04T16:46:25.206Z,6.95
2018-08-04T16:48:54.308Z,7.40
2018-08-04T16:51:23.035Z,7.17
2018-08-04T16:53:53.530Z,7.22
2018-08-04T16:56:22.481Z,8.28
2018-08-04T16:58:50.795Z,7.03
2018-08-04T17:01:19.062Z,7.50
2018-08-04T17:03:47.772Z,6.83
2018-08-04T17:06:16.598Z,12.13
2018-08-04T17:08:45.214Z,6.78
2018-08-04T17:11:13.998Z,7.10
2018-08-04T17:13:42.267Z,8.18
2018-08-04T17:16:10.708Z,7.00
2018-08-04T17:18:39.809Z,7.53
2018-08-04T17:21:08.526Z,9.10
2018-08-04T17:23:37.169Z,7.95
2018-08-04T17:26:05.859Z,8.70
2018-08-04T17:28:34.543Z,7.87
2018-08-04T17:31:03.552Z,10.38
2018-08-04T17:33:32.297Z,11.70
2018-08-04T17:36:00.983Z,8.25
2018-08-04T17:38:29.685Z,8.40
2018-08-04T17:40:58.488Z,9.38
2018-08-04T17:43:27.271Z,8.75
2018-08-04T17:45:55.774Z,9.63
2018-08-04T17:48:24.511Z,8.63
2018-08-04T17:50:53.218Z,8.48
2018-08-04T17:53:22.109Z,7.62
2018-08-04T17:55:50.855Z,8.85
2018-08-04T17:58:19.579Z,8.35
2018-08-04T18:00:48.252Z,9.48
2018-08-04T18:03:16.889Z,11.15
2018-08-04T18:05:45.532Z,8.70
2018-08-04T18:08:13.869Z,9.48
2018-08-04T18:10:42.800Z,9.80
2018-08-04T18:13:11.527Z,9.90
2018-08-04T18:15:40.317Z,12.20
2018-08-04T18:18:09.004Z,9.53
2018-08-04T18:20:37.770Z,9.70
2018-08-04T18:23:06.559Z,10.38
2018-08-04T18:25:35.483Z,10.85
2018-08-04T18:28:04.277Z,9.65
2018-08-04T18:30:33.102Z,10.00
2018-08-04T18:33:01.891Z,11.30
2018-08-04T18:35:30.600Z,9.93
2018-08-04T18:37:59.347Z,10.10
2018-08-04T18:40:27.982Z,10.23
2018-08-04T18:42:56.706Z,12.88
2018-08-04T18:45:25.499Z,11.80
2018-08-04T18:47:54.181Z,11.48
2018-08-04T18:50:22.929Z,10.60
2018-08-04T18:52:55.428Z,9.95
2018-08-04T18:55:25.286Z,11.80
2018-08-04T18:57:53.968Z,11.38
2018-08-04T19:00:22.787Z,10.85
2018-08-04T19:02:51.575Z,10.03
2018-08-04T19:05:20.310Z,10.60
2018-08-04T19:07:49.155Z,10.82
2018-08-04T19:10:17.894Z,10.85
2018-08-04T19:12:46.531Z,10.72
2018-08-04T19:15:15.197Z,16.25
2018-08-04T19:17:43.901Z,11.70
2018-08-04T19:20:12.612Z,13.98
2018-08-04T19:22:41.465Z,10.10
2018-08-04T19:25:10.306Z,10.57
2018-08-04T19:27:40.714Z,9.80
2018-08-04T19:30:09.485Z,9.97
2018-08-04T19:32:37.754Z,10.13
2018-08-04T19:35:06.522Z,8.38
2018-08-04T19:37:35.319Z,8.48
2018-08-04T19:40:09.882Z,8.65
2018-08-04T19:42:38.829Z,9.13
2018-08-04T19:45:07.676Z,11.00
2018-08-04T19:47:36.395Z,8.33
2018-08-04T19:50:23.371Z,11.20
2018-08-04T19:52:52.244Z,11.60
2018-08-04T19:55:21.481Z,9.80
2018-08-04T19:57:50.818Z,8.43
2018-08-04T20:00:19.578Z,8.60
2018-08-04T20:02:48.417Z,11.20
2018-08-04T20:08:08.372Z,9.07
2018-08-04T20:10:37.184Z,9.23
2018-08-04T20:13:06.091Z,9.00
2018-08-04T20:15:34.518Z,10.43
2018-08-04T20:18:03.216Z,11.70
2018-08-04T20:20:32.206Z,9.80
2018-08-04T20:23:00.516Z,10.07
2018-08-04T20:25:29.066Z,10.03
2018-08-04T20:27:57.369Z,9.70
2018-08-04T20:30:25.938Z,9.73
2018-08-04T20:32:54.335Z,9.53
2018-08-04T20:35:22.422Z,10.00
2018-08-04T20:37:50.919Z,9.97
2018-08-04T20:40:18.954Z,10.00
2018-08-04T20:42:47.527Z,9.77
2018-08-04T20:45:15.882Z,9.63
2018-08-04T20:47:44.371Z,9.07
2018-08-04T20:50:12.798Z,9.20
2018-08-04T20:52:41.610Z,9.73
2018-08-04T20:55:09.942Z,10.03
2018-08-04T20:57:39.134Z,10.47
2018-08-04T21:00:07.446Z,10.50
2018-08-04T21:02:35.723Z,10.20
2018-08-04T21:05:04.321Z,10.00
2018-08-04T21:07:32.619Z,10.03
2018-08-04T21:10:00.933Z,10.33
2018-08-04T21:12:29.239Z,11.83
2018-08-04T21:14:57.518Z,10.00
2018-08-04T21:17:25.784Z,11.67
2018-08-04T21:19:54.326Z,11.03
2018-08-04T21:22:22.610Z,10.77
2018-08-04T21:24:50.917Z,11.30
2018-08-04T21:27:19.174Z,10.13
2018-08-04T21:29:47.444Z,10.83
2018-08-04T21:32:15.714Z,11.57
2018-08-04T21:34:44.028Z,10.50
2018-08-04T21:37:12.367Z,10.90
2018-08-04T21:42:30.822Z,10.70
2018-08-04T21:44:59.099Z,10.70
2018-08-04T21:48:38.790Z,12.40
2018-08-04T21:51:07.078Z,10.97
2018-08-04T21:53:35.394Z,10.43
2018-08-04T21:56:03.766Z,10.77
2018-08-04T21:58:31.993Z,11.50
2018-08-04T22:01:05.692Z,11.40
2018-08-04T22:03:33.986Z,10.67
2018-08-04T22:06:02.323Z,11.07
2018-08-04T22:08:42.125Z,11.00
2018-08-04T22:11:10.408Z,11.57
2018-08-04T22:13:38.424Z,11.37
2018-08-04T22:16:06.738Z,11.40
2018-08-04T22:18:35.004Z,11.50
2018-08-04T22:21:03.286Z,12.37
2018-08-04T22:23:31.549Z,12.30
2018-08-04T22:25:59.826Z,14.70
2018-08-04T22:28:28.121Z,11.23
2018-08-04T22:30:56.391Z,11.93
2018-08-04T22:33:24.732Z,11.90
2018-08-04T22:35:52.992Z,12.13
2018-08-04T22:38:21.332Z,11.87
2018-08-04T22:40:49.622Z,11.67
2018-08-04T22:43:17.897Z,11.60
2018-08-04T22:46:14.636Z,11.33
2018-08-04T22:48:44.289Z,11.63
2018-08-04T22:51:12.610Z,12.27
2018-08-04T22:53:40.863Z,11.93
2018-08-04T22:56:09.079Z,12.27
2018-08-04T22:58:37.354Z,12.73
2018-08-04T23:01:05.881Z,11.87
2018-08-04T23:06:14.481Z,11.93
2018-08-04T23:08:42.506Z,11.63
2018-08-04T23:11:10.786Z,12.40
2018-08-04T23:13:39.106Z,12.07
2018-08-04T23:16:08.047Z,12.77
2018-08-04T23:18:36.315Z,11.63
2018-08-04T23:21:04.574Z,11.97
2018-08-04T23:23:32.898Z,12.23
2018-08-04T23:26:01.157Z,12.27
2018-08-04T23:28:29.428Z,12.40
2018-08-04T23:30:57.692Z,11.97
2018-08-04T23:33:26.007Z,12.47
2018-08-04T23:35:54.262Z,12.30
2018-08-04T23:38:22.521Z,12.77
2018-08-04T23:40:50.786Z,11.73
2018-08-04T23:43:19.047Z,12.50
2018-08-04T23:48:33.223Z,11.73
2018-08-04T23:51:01.495Z,12.73
2018-08-04T23:53:29.765Z,11.37
2018-08-04T23:55:58.030Z,11.30
2018-08-04T23:58:26.306Z,11.40
